sensor_id;sensor_type;location;lat;lon;timestamp;temperature;humidity
47162;DHT22;32921;53.256;8.198;2022-12-10T00:01:25;-1.90;99.90
47162;DHT22;32921;53.256;8.198;2022-12-10T00:03:51;-2.20;99.90
47162;DHT22;32921;53.256;8.198;2022-12-10T00:06:20;-2.30;99.90
47162;DHT22;32921;53.256;8.198;2022-12-10T00:08:46;-2.40;99.90
47162;DHT22;32921;53.256;8.198;2022-12-10T00:11:14;-2.50;99.90
47162;DHT22;32921;53.256;8.198;2022-12-10T00:13:40;-2.30;99.90
47162;DHT22;32921;53.256;8.198;2022-12-10T00:16:08;-2.10;99.90
47162;DHT22;32921;53.256;8.198;2022-12-10T00:18:35;-2.30;99.90
47162;DHT22;32921;53.256;8.198;2022-12-10T00:21:12;-2.30;99.90
47162;DHT22;32921;53.256;8.198;2022-12-10T00:23:38;-2.00;99.90
47162;DHT22;32921;53.256;8.198;2022-12-10T00:26:18;-1.70;99.90
47162;DHT22;32921;53.256;8.198;2022-12-10T00:28:45;-1.50;99.90
47162;DHT22;32921;53.256;8.198;2022-12-10T00:31:16;-1.60;99.90
47162;DHT22;32921;53.256;8.198;2022-12-10T00:33:43;-1.70;99.90
47162;DHT22;32921;53.256;8.198;2022-12-10T00:36:12;-1.80;99.90
47162;DHT22;32921;53.256;8.198;2022-12-10T00:38:39;-1.70;99.90
47162;DHT22;32921;53.256;8.198;2022-12-10T00:41:05;-1.70;99.90
47162;DHT22;32921;53.256;8.198;2022-12-10T00:43:31;-1.70;99.90
47162;DHT22;32921;53.256;8.198;2022-12-10T00:45:57;-1.60;99.90
47162;DHT22;32921;53.256;8.198;2022-12-10T00:48:23;-1.60;99.90
47162;DHT22;32921;53.256;8.198;2022-12-10T00:51:01;-1.80;99.90
47162;DHT22;32921;53.256;8.198;2022-12-10T00:53:28;-2.10;99.90
47162;DHT22;32921;53.256;8.198;2022-12-10T00:55:55;-2.50;99.90
47162;DHT22;32921;53.256;8.198;2022-12-10T00:58:21;-2.90;99.90
47162;DHT22;32921;53.256;8.198;2022-12-10T01:00:47;-3.10;99.90
47162;DHT22;32921;53.256;8.198;2022-12-10T01:03:12;-2.60;99.90
47162;DHT22;32921;53.256;8.198;2022-12-10T01:05:38;-2.50;99.90
47162;DHT22;32921;53.256;8.198;2022-12-10T01:08:04;-2.60;99.90
47162;DHT22;32921;53.256;8.198;2022-12-10T01:10:29;-3.00;99.90
47162;DHT22;32921;53.256;8.198;2022-12-10T01:12:55;-3.40;99.90
47162;DHT22;32921;53.256;8.198;2022-12-10T01:15:20;-3.20;99.90
47162;DHT22;32921;53.256;8.198;2022-12-10T01:17:46;-3.40;99.90
47162;DHT22;32921;53.256;8.198;2022-12-10T01:20:12;-3.40;99.90
47162;DHT22;32921;53.256;8.198;2022-12-10T01:22:37;-3.50;99.90
47162;DHT22;32921;53.256;8.198;2022-12-10T01:25:03;-3.60;99.90
47162;DHT22;32921;53.256;8.198;2022-12-10T01:27:29;-3.70;99.90
47162;DHT22;32921;53.256;8.198;2022-12-10T01:29:55;-3.90;99.90
47162;DHT22;32921;53.256;8.198;2022-12-10T01:32:21;-3.70;99.90
47162;DHT22;32921;53.256;8.198;2022-12-10T01:34:46;-3.00;99.90
47162;DHT22;32921;53.256;8.198;2022-12-10T01:37:12;-3.20;99.90
47162;DHT22;32921;53.256;8.198;2022-12-10T01:39:38;-3.50;99.90
47162;DHT22;32921;53.256;8.198;2022-12-10T01:42:04;-3.80;99.90
47162;DHT22;32921;53.256;8.198;2022-12-10T01:46:57;-3.80;99.90
47162;DHT22;32921;53.256;8.198;2022-12-10T01:49:26;-3.90;99.90
47162;DHT22;32921;53.256;8.198;2022-12-10T01:51:54;-3.90;99.90
47162;DHT22;32921;53.256;8.198;2022-12-10T01:54:27;-4.00;99.90
47162;DHT22;32921;53.256;8.198;2022-12-10T01:57:12;-4.00;99.90
47162;DHT22;32921;53.256;8.198;2022-12-10T01:59:38;-3.70;99.90
47162;DHT22;32921;53.256;8.198;2022-12-10T02:05:29;-3.40;99.90
47162;DHT22;32921;53.256;8.198;2022-12-10T02:08:26;-3.70;99.90
47162;DHT22;32921;53.256;8.198;2022-12-10T02:16:29;-3.10;99.90
47162;DHT22;32921;53.256;8.198;2022-12-10T02:19:03;-3.30;99.90
47162;DHT22;32921;53.256;8.198;2022-12-10T02:21:34;-3.60;99.90
47162;DHT22;32921;53.256;8.198;2022-12-10T02:24:04;-3.90;99.90
47162;DHT22;32921;53.256;8.198;2022-12-10T02:26:42;-4.10;99.90
47162;DHT22;32921;53.256;8.198;2022-12-10T02:29:18;-4.30;99.90
47162;DHT22;32921;53.256;8.198;2022-12-10T02:31:48;-4.30;99.90
47162;DHT22;32921;53.256;8.198;2022-12-10T02:34:16;-4.30;99.90
47162;DHT22;32921;53.256;8.198;2022-12-10T02:36:44;-4.40;99.90
47162;DHT22;32921;53.256;8.198;2022-12-10T02:39:14;-4.40;99.90
47162;DHT22;32921;53.256;8.198;2022-12-10T02:41:45;-4.50;99.90
47162;DHT22;32921;53.256;8.198;2022-12-10T02:44:14;-4.50;99.90
47162;DHT22;32921;53.256;8.198;2022-12-10T02:46:42;-4.50;99.90
47162;DHT22;32921;53.256;8.198;2022-12-10T02:49:12;-4.40;99.90
47162;DHT22;32921;53.256;8.198;2022-12-10T02:51:39;-3.90;99.90
47162;DHT22;32921;53.256;8.198;2022-12-10T02:54:31;-3.60;99.90
47162;DHT22;32921;53.256;8.198;2022-12-10T02:56:58;-3.70;99.90
47162;DHT22;32921;53.256;8.198;2022-12-10T02:59:37;-3.60;99.90
47162;DHT22;32921;53.256;8.198;2022-12-10T03:05:18;-2.90;99.90
47162;DHT22;32921;53.256;8.198;2022-12-10T03:08:03;-2.80;99.90
47162;DHT22;32921;53.256;8.198;2022-12-10T03:13:03;-3.10;99.90
47162;DHT22;32921;53.256;8.198;2022-12-10T03:15:34;-3.30;99.90
47162;DHT22;32921;53.256;8.198;2022-12-10T03:18:02;-3.20;99.90
47162;DHT22;32921;53.256;8.198;2022-12-10T03:20:32;-3.10;99.90
47162;DHT22;32921;53.256;8.198;2022-12-10T03:22:58;-3.00;99.90
47162;DHT22;32921;53.256;8.198;2022-12-10T03:25:26;-3.10;99.90
47162;DHT22;32921;53.256;8.198;2022-12-10T03:27:55;-3.00;99.90
47162;DHT22;32921;53.256;8.198;2022-12-10T03:30:22;-2.80;99.90
47162;DHT22;32921;53.256;8.198;2022-12-10T03:32:47;-2.50;99.90
47162;DHT22;32921;53.256;8.198;2022-12-10T03:35:14;-2.40;99.90
47162;DHT22;32921;53.256;8.198;2022-12-10T03:37:41;-2.30;99.90
47162;DHT22;32921;53.256;8.198;2022-12-10T03:40:08;-2.30;99.90
47162;DHT22;32921;53.256;8.198;2022-12-10T03:42:36;-2.30;99.90
47162;DHT22;32921;53.256;8.198;2022-12-10T03:45:03;-2.50;99.90
47162;DHT22;32921;53.256;8.198;2022-12-10T03:47:29;-2.80;99.90
47162;DHT22;32921;53.256;8.198;2022-12-10T03:49:54;-3.20;99.90
47162;DHT22;32921;53.256;8.198;2022-12-10T03:52:20;-3.00;99.90
47162;DHT22;32921;53.256;8.198;2022-12-10T03:54:46;-2.90;99.90
47162;DHT22;32921;53.256;8.198;2022-12-10T03:57:12;-2.70;99.90
47162;DHT22;32921;53.256;8.198;2022-12-10T03:59:37;-2.90;99.90
47162;DHT22;32921;53.256;8.198;2022-12-10T04:02:03;-3.20;99.90
47162;DHT22;32921;53.256;8.198;2022-12-10T04:04:29;-3.20;99.90
47162;DHT22;32921;53.256;8.198;2022-12-10T04:06:55;-3.20;99.90
47162;DHT22;32921;53.256;8.198;2022-12-10T04:09:20;-3.40;99.90
47162;DHT22;32921;53.256;8.198;2022-12-10T04:11:46;-3.60;99.90
47162;DHT22;32921;53.256;8.198;2022-12-10T04:14:13;-3.60;99.90
47162;DHT22;32921;53.256;8.198;2022-12-10T04:16:58;-3.40;99.90
47162;DHT22;32921;53.256;8.198;2022-12-10T04:19:24;-3.40;99.90
47162;DHT22;32921;53.256;8.198;2022-12-10T04:21:49;-3.40;99.90
47162;DHT22;32921;53.256;8.198;2022-12-10T04:24:44;-3.80;99.90
47162;DHT22;32921;53.256;8.198;2022-12-10T04:27:36;-4.10;99.90
47162;DHT22;32921;53.256;8.198;2022-12-10T04:30:04;-4.10;99.90
47162;DHT22;32921;53.256;8.198;2022-12-10T04:32:30;-3.90;99.90
47162;DHT22;32921;53.256;8.198;2022-12-10T04:34:56;-4.00;99.90
47162;DHT22;32921;53.256;8.198;2022-12-10T04:37:22;-4.20;99.90
47162;DHT22;32921;53.256;8.198;2022-12-10T04:39:51;-4.30;99.90
47162;DHT22;32921;53.256;8.198;2022-12-10T04:42:18;-4.40;99.90
47162;DHT22;32921;53.256;8.198;2022-12-10T04:44:44;-4.40;99.90
47162;DHT22;32921;53.256;8.198;2022-12-10T04:47:11;-4.40;99.90
47162;DHT22;32921;53.256;8.198;2022-12-10T04:49:37;-4.50;99.90
47162;DHT22;32921;53.256;8.198;2022-12-10T04:52:04;-4.60;99.90
47162;DHT22;32921;53.256;8.198;2022-12-10T04:54:29;-4.50;99.90
47162;DHT22;32921;53.256;8.198;2022-12-10T04:56:55;-4.40;99.90
47162;DHT22;32921;53.256;8.198;2022-12-10T04:59:21;-4.10;99.90
47162;DHT22;32921;53.256;8.198;2022-12-10T05:01:46;-4.30;99.90
47162;DHT22;32921;53.256;8.198;2022-12-10T05:04:15;-4.50;99.90
47162;DHT22;32921;53.256;8.198;2022-12-10T05:06:42;-4.60;99.90
47162;DHT22;32921;53.256;8.198;2022-12-10T05:09:10;-4.70;99.90
47162;DHT22;32921;53.256;8.198;2022-12-10T05:11:36;-4.80;99.90
47162;DHT22;32921;53.256;8.198;2022-12-10T05:14:02;-4.80;99.90
47162;DHT22;32921;53.256;8.198;2022-12-10T05:16:30;-4.80;99.90
47162;DHT22;32921;53.256;8.198;2022-12-10T05:18:56;-4.60;99.90
47162;DHT22;32921;53.256;8.198;2022-12-10T05:21:23;-4.50;99.90
47162;DHT22;32921;53.256;8.198;2022-12-10T05:23:51;-4.60;99.90
47162;DHT22;32921;53.256;8.198;2022-12-10T05:26:19;-4.70;99.90
47162;DHT22;32921;53.256;8.198;2022-12-10T05:28:56;-4.80;99.90
47162;DHT22;32921;53.256;8.198;2022-12-10T05:31:24;-4.70;99.90
47162;DHT22;32921;53.256;8.198;2022-12-10T05:33:51;-4.80;99.90
47162;DHT22;32921;53.256;8.198;2022-12-10T05:36:19;-4.80;99.90
47162;DHT22;32921;53.256;8.198;2022-12-10T05:38:46;-4.70;99.90
47162;DHT22;32921;53.256;8.198;2022-12-10T05:43:39;-4.60;99.90
47162;DHT22;32921;53.256;8.198;2022-12-10T05:46:08;-4.70;99.90
47162;DHT22;32921;53.256;8.198;2022-12-10T05:48:34;-4.90;99.90
47162;DHT22;32921;53.256;8.198;2022-12-10T05:51:05;-5.00;99.90
47162;DHT22;32921;53.256;8.198;2022-12-10T05:53:31;-4.90;99.90
47162;DHT22;32921;53.256;8.198;2022-12-10T05:56:00;-4.70;99.90
47162;DHT22;32921;53.256;8.198;2022-12-10T05:58:27;-4.60;99.90
47162;DHT22;32921;53.256;8.198;2022-12-10T06:00:54;-4.40;99.90
47162;DHT22;32921;53.256;8.198;2022-12-10T06:03:20;-3.90;99.90
47162;DHT22;32921;53.256;8.198;2022-12-10T06:05:46;-3.80;99.90
47162;DHT22;32921;53.256;8.198;2022-12-10T06:08:11;-3.60;99.90
47162;DHT22;32921;53.256;8.198;2022-12-10T06:10:37;-3.10;99.90
47162;DHT22;32921;53.256;8.198;2022-12-10T06:13:09;-3.00;99.90
47162;DHT22;32921;53.256;8.198;2022-12-10T06:15:39;-2.90;99.90
47162;DHT22;32921;53.256;8.198;2022-12-10T06:18:05;-2.90;99.90
47162;DHT22;32921;53.256;8.198;2022-12-10T06:20:30;-2.90;99.90
47162;DHT22;32921;53.256;8.198;2022-12-10T06:22:56;-3.10;99.90
47162;DHT22;32921;53.256;8.198;2022-12-10T06:25:21;-3.10;99.90
47162;DHT22;32921;53.256;8.198;2022-12-10T06:27:47;-3.20;99.90
47162;DHT22;32921;53.256;8.198;2022-12-10T06:30:13;-3.20;99.90
47162;DHT22;32921;53.256;8.198;2022-12-10T06:32:38;-3.10;99.90
47162;DHT22;32921;53.256;8.198;2022-12-10T06:35:05;-2.80;99.90
47162;DHT22;32921;53.256;8.198;2022-12-10T06:37:31;-2.60;99.90
47162;DHT22;32921;53.256;8.198;2022-12-10T06:39:57;-2.30;99.90
47162;DHT22;32921;53.256;8.198;2022-12-10T06:42:22;-2.10;99.90
47162;DHT22;32921;53.256;8.198;2022-12-10T06:44:48;-2.00;99.90
47162;DHT22;32921;53.256;8.198;2022-12-10T06:47:14;-2.20;99.90
47162;DHT22;32921;53.256;8.198;2022-12-10T06:49:40;-2.40;99.90
47162;DHT22;32921;53.256;8.198;2022-12-10T06:52:06;-2.50;99.90
47162;DHT22;32921;53.256;8.198;2022-12-10T06:54:31;-2.80;99.90
47162;DHT22;32921;53.256;8.198;2022-12-10T06:56:57;-2.90;99.90
47162;DHT22;32921;53.256;8.198;2022-12-10T06:59:23;-3.00;99.90
47162;DHT22;32921;53.256;8.198;2022-12-10T07:01:48;-3.20;99.90
47162;DHT22;32921;53.256;8.198;2022-12-10T07:04:14;-3.20;99.90
47162;DHT22;32921;53.256;8.198;2022-12-10T07:06:40;-2.70;99.90
47162;DHT22;32921;53.256;8.198;2022-12-10T07:09:05;-2.40;99.90
47162;DHT22;32921;53.256;8.198;2022-12-10T07:11:31;-2.30;99.90
47162;DHT22;32921;53.256;8.198;2022-12-10T07:13:58;-2.20;99.90
47162;DHT22;32921;53.256;8.198;2022-12-10T07:16:26;-2.20;99.90
47162;DHT22;32921;53.256;8.198;2022-12-10T07:18:53;-2.30;99.90
47162;DHT22;32921;53.256;8.198;2022-12-10T07:21:24;-2.30;99.90
47162;DHT22;32921;53.256;8.198;2022-12-10T07:23:52;-2.20;99.90
47162;DHT22;32921;53.256;8.198;2022-12-10T07:26:23;-2.20;99.90
47162;DHT22;32921;53.256;8.198;2022-12-10T07:28:49;-2.30;99.90
47162;DHT22;32921;53.256;8.198;2022-12-10T07:31:15;-2.20;99.90
47162;DHT22;32921;53.256;8.198;2022-12-10T07:33:40;-2.00;99.90
47162;DHT22;32921;53.256;8.198;2022-12-10T07:36:08;-2.00;99.90
47162;DHT22;32921;53.256;8.198;2022-12-10T07:38:34;-2.10;99.90
47162;DHT22;32921;53.256;8.198;2022-12-10T07:41:07;-2.20;99.90
47162;DHT22;32921;53.256;8.198;2022-12-10T07:43:37;-2.00;99.90
47162;DHT22;32921;53.256;8.198;2022-12-10T07:46:06;-1.70;99.90
47162;DHT22;32921;53.256;8.198;2022-12-10T07:48:33;-1.50;99.90
47162;DHT22;32921;53.256;8.198;2022-12-10T07:50:59;-1.40;99.90
47162;DHT22;32921;53.256;8.198;2022-12-10T07:53:24;-1.20;99.90
47162;DHT22;32921;53.256;8.198;2022-12-10T07:55:50;-1.20;99.90
47162;DHT22;32921;53.256;8.198;2022-12-10T07:58:16;-1.20;99.90
47162;DHT22;32921;53.256;8.198;2022-12-10T08:00:41;-1.20;99.90
47162;DHT22;32921;53.256;8.198;2022-12-10T08:03:07;-1.20;99.90
47162;DHT22;32921;53.256;8.198;2022-12-10T08:05:32;-1.20;99.90
47162;DHT22;32921;53.256;8.198;2022-12-10T08:07:58;-1.30;99.90
47162;DHT22;32921;53.256;8.198;2022-12-10T08:10:23;-1.50;99.90
47162;DHT22;32921;53.256;8.198;2022-12-10T08:12:49;-1.50;99.90
47162;DHT22;32921;53.256;8.198;2022-12-10T08:15:15;-1.30;99.90
47162;DHT22;32921;53.256;8.198;2022-12-10T08:17:40;-1.40;99.90
47162;DHT22;32921;53.256;8.198;2022-12-10T08:20:06;-1.20;99.90
47162;DHT22;32921;53.256;8.198;2022-12-10T08:22:33;-1.10;99.90
47162;DHT22;32921;53.256;8.198;2022-12-10T08:24:59;-1.10;99.90
47162;DHT22;32921;53.256;8.198;2022-12-10T08:27:25;-1.20;99.90
47162;DHT22;32921;53.256;8.198;2022-12-10T08:29:51;-1.30;99.90
47162;DHT22;32921;53.256;8.198;2022-12-10T08:32:16;-1.30;99.90
47162;DHT22;32921;53.256;8.198;2022-12-10T08:34:42;-1.30;99.90
47162;DHT22;32921;53.256;8.198;2022-12-10T08:37:07;-1.30;99.90
47162;DHT22;32921;53.256;8.198;2022-12-10T08:39:33;-1.40;99.90
47162;DHT22;32921;53.256;8.198;2022-12-10T08:41:59;-1.40;99.90
47162;DHT22;32921;53.256;8.198;2022-12-10T08:44:24;-1.20;99.90
47162;DHT22;32921;53.256;8.198;2022-12-10T08:46:50;-1.10;99.90
47162;DHT22;32921;53.256;8.198;2022-12-10T08:49:15;-1.00;99.90
47162;DHT22;32921;53.256;8.198;2022-12-10T08:51:41;-1.00;99.90
47162;DHT22;32921;53.256;8.198;2022-12-10T08:54:07;-0.90;99.90
47162;DHT22;32921;53.256;8.198;2022-12-10T08:56:33;-0.70;99.90
47162;DHT22;32921;53.256;8.198;2022-12-10T08:58:58;-0.60;99.90
47162;DHT22;32921;53.256;8.198;2022-12-10T09:01:24;-0.50;99.90
47162;DHT22;32921;53.256;8.198;2022-12-10T09:03:50;-0.40;99.90
47162;DHT22;32921;53.256;8.198;2022-12-10T09:06:18;-0.30;99.90
47162;DHT22;32921;53.256;8.198;2022-12-10T09:08:44;-0.10;99.90
47162;DHT22;32921;53.256;8.198;2022-12-10T09:11:14;-0.10;99.90
47162;DHT22;32921;53.256;8.198;2022-12-10T09:13:40;-0.10;99.90
47162;DHT22;32921;53.256;8.198;2022-12-10T09:16:05;-0.20;99.90
47162;DHT22;32921;53.256;8.198;2022-12-10T09:18:31;-0.20;99.90
47162;DHT22;32921;53.256;8.198;2022-12-10T09:20:56;-0.20;99.90
47162;DHT22;32921;53.256;8.198;2022-12-10T09:23:22;-0.20;99.90
47162;DHT22;32921;53.256;8.198;2022-12-10T09:25:48;-0.20;99.90
47162;DHT22;32921;53.256;8.198;2022-12-10T09:28:14;-0.20;99.90
47162;DHT22;32921;53.256;8.198;2022-12-10T09:30:39;-0.20;99.90
47162;DHT22;32921;53.256;8.198;2022-12-10T09:33:05;-0.20;99.90
47162;DHT22;32921;53.256;8.198;2022-12-10T09:35:31;-0.20;99.90
47162;DHT22;32921;53.256;8.198;2022-12-10T09:37:56;-0.20;99.90
47162;DHT22;32921;53.256;8.198;2022-12-10T09:40:39;-0.20;99.90
47162;DHT22;32921;53.256;8.198;2022-12-10T09:43:18;-0.10;99.90
47162;DHT22;32921;53.256;8.198;2022-12-10T09:46:26;0.00;99.90
47162;DHT22;32921;53.256;8.198;2022-12-10T09:51:35;0.30;99.90
47162;DHT22;32921;53.256;8.198;2022-12-10T09:54:03;0.30;99.90
47162;DHT22;32921;53.256;8.198;2022-12-10T09:56:33;0.40;99.90
47162;DHT22;32921;53.256;8.198;2022-12-10T09:59:03;0.40;99.90
47162;DHT22;32921;53.256;8.198;2022-12-10T10:01:31;0.40;99.90
47162;DHT22;32921;53.256;8.198;2022-12-10T10:03:57;0.50;99.90
47162;DHT22;32921;53.256;8.198;2022-12-10T10:06:24;0.60;99.90
47162;DHT22;32921;53.256;8.198;2022-12-10T10:08:54;0.60;99.90
47162;DHT22;32921;53.256;8.198;2022-12-10T10:11:24;0.60;99.90
47162;DHT22;32921;53.256;8.198;2022-12-10T10:13:57;0.60;99.90
47162;DHT22;32921;53.256;8.198;2022-12-10T10:16:48;0.70;99.90
47162;DHT22;32921;53.256;8.198;2022-12-10T10:19:23;0.70;99.90
47162;DHT22;32921;53.256;8.198;2022-12-10T10:21:50;0.60;99.90
47162;DHT22;32921;53.256;8.198;2022-12-10T10:24:19;0.80;99.90
47162;DHT22;32921;53.256;8.198;2022-12-10T10:26:45;0.80;99.90
47162;DHT22;32921;53.256;8.198;2022-12-10T10:29:18;0.80;99.90
47162;DHT22;32921;53.256;8.198;2022-12-10T10:31:45;0.90;99.90
47162;DHT22;32921;53.256;8.198;2022-12-10T10:34:22;1.00;99.90
47162;DHT22;32921;53.256;8.198;2022-12-10T10:36:56;0.90;99.90
47162;DHT22;32921;53.256;8.198;2022-12-10T10:39:28;1.10;99.90
47162;DHT22;32921;53.256;8.198;2022-12-10T10:41:56;1.10;99.90
47162;DHT22;32921;53.256;8.198;2022-12-10T10:44:24;1.10;99.90
47162;DHT22;32921;53.256;8.198;2022-12-10T10:46:53;1.10;99.90
47162;DHT22;32921;53.256;8.198;2022-12-10T10:51:44;1.10;99.90
47162;DHT22;32921;53.256;8.198;2022-12-10T10:57:19;1.10;99.90
47162;DHT22;32921;53.256;8.198;2022-12-10T10:59:47;1.10;99.90
47162;DHT22;32921;53.256;8.198;2022-12-10T11:02:17;1.00;99.90
47162;DHT22;32921;53.256;8.198;2022-12-10T11:04:54;1.20;99.90
47162;DHT22;32921;53.256;8.198;2022-12-10T11:07:32;1.40;99.90
47162;DHT22;32921;53.256;8.198;2022-12-10T11:09:59;1.50;99.90
47162;DHT22;32921;53.256;8.198;2022-12-10T11:12:39;1.50;99.90
47162;DHT22;32921;53.256;8.198;2022-12-10T11:15:30;1.40;99.90
47162;DHT22;32921;53.256;8.198;2022-12-10T11:17:57;1.40;99.90
47162;DHT22;32921;53.256;8.198;2022-12-10T11:20:34;1.60;99.90
47162;DHT22;32921;53.256;8.198;2022-12-10T11:23:04;1.60;99.90
47162;DHT22;32921;53.256;8.198;2022-12-10T11:25:45;1.50;99.90
47162;DHT22;32921;53.256;8.198;2022-12-10T11:30:46;1.70;99.90
47162;DHT22;32921;53.256;8.198;2022-12-10T11:33:33;1.60;99.90
47162;DHT22;32921;53.256;8.198;2022-12-10T11:39:01;1.80;99.90
47162;DHT22;32921;53.256;8.198;2022-12-10T11:44:12;1.90;99.90
47162;DHT22;32921;53.256;8.198;2022-12-10T11:47:15;2.00;99.90
47162;DHT22;32921;53.256;8.198;2022-12-10T12:01:30;1.80;99.90
47162;DHT22;32921;53.256;8.198;2022-12-10T12:07:10;1.90;99.90
47162;DHT22;32921;53.256;8.198;2022-12-10T12:10:02;1.90;99.90
47162;DHT22;32921;53.256;8.198;2022-12-10T12:15:23;2.00;99.90
47162;DHT22;32921;53.256;8.198;2022-12-10T12:17:52;2.00;99.90
47162;DHT22;32921;53.256;8.198;2022-12-10T12:28:52;1.90;99.90
47162;DHT22;32921;53.256;8.198;2022-12-10T12:31:29;2.00;99.90
47162;DHT22;32921;53.256;8.198;2022-12-10T12:33:59;2.00;99.90
47162;DHT22;32921;53.256;8.198;2022-12-10T12:36:28;2.10;99.90
47162;DHT22;32921;53.256;8.198;2022-12-10T12:41:57;2.20;99.90
47162;DHT22;32921;53.256;8.198;2022-12-10T12:44:52;2.20;99.90
47162;DHT22;32921;53.256;8.198;2022-12-10T12:47:39;2.20;99.90
47162;DHT22;32921;53.256;8.198;2022-12-10T12:53:09;2.00;99.90
47162;DHT22;32921;53.256;8.198;2022-12-10T12:55:46;1.80;99.90
47162;DHT22;32921;53.256;8.198;2022-12-10T12:58:23;1.80;99.90
47162;DHT22;32921;53.256;8.198;2022-12-10T13:00:55;1.90;99.90
47162;DHT22;32921;53.256;8.198;2022-12-10T13:03:40;1.90;99.90
47162;DHT22;32921;53.256;8.198;2022-12-10T13:06:16;1.90;99.90
47162;DHT22;32921;53.256;8.198;2022-12-10T13:20:35;1.70;99.90
47162;DHT22;32921;53.256;8.198;2022-12-10T13:34:03;1.50;99.90
47162;DHT22;32921;53.256;8.198;2022-12-10T13:41:34;1.50;99.90
47162;DHT22;32921;53.256;8.198;2022-12-10T13:44:46;1.40;99.90
47162;DHT22;32921;53.256;8.198;2022-12-10T13:52:30;1.40;99.90
47162;DHT22;32921;53.256;8.198;2022-12-10T13:55:19;1.40;99.90
47162;DHT22;32921;53.256;8.198;2022-12-10T13:57:56;1.40;99.90
47162;DHT22;32921;53.256;8.198;2022-12-10T14:00:38;1.40;99.90
47162;DHT22;32921;53.256;8.198;2022-12-10T14:06:17;1.40;99.90
47162;DHT22;32921;53.256;8.198;2022-12-10T14:09:00;1.40;99.90
47162;DHT22;32921;53.256;8.198;2022-12-10T14:11:31;1.30;99.90
47162;DHT22;32921;53.256;8.198;2022-12-10T14:13:59;1.20;99.90
47162;DHT22;32921;53.256;8.198;2022-12-10T14:16:31;1.20;99.90
47162;DHT22;32921;53.256;8.198;2022-12-10T14:19:00;1.20;99.90
47162;DHT22;32921;53.256;8.198;2022-12-10T14:21:36;1.20;99.90
47162;DHT22;32921;53.256;8.198;2022-12-10T14:24:04;1.10;99.90
47162;DHT22;32921;53.256;8.198;2022-12-10T14:26:35;1.00;99.90
47162;DHT22;32921;53.256;8.198;2022-12-10T14:29:20;1.00;99.90
47162;DHT22;32921;53.256;8.198;2022-12-10T14:31:49;0.90;99.90
47162;DHT22;32921;53.256;8.198;2022-12-10T14:34:23;1.00;99.90
47162;DHT22;32921;53.256;8.198;2022-12-10T14:36:52;1.00;99.90
47162;DHT22;32921;53.256;8.198;2022-12-10T14:39:28;1.00;99.90
47162;DHT22;32921;53.256;8.198;2022-12-10T14:41:57;1.00;99.90
47162;DHT22;32921;53.256;8.198;2022-12-10T14:44:25;1.00;99.90
47162;DHT22;32921;53.256;8.198;2022-12-10T14:46:51;0.90;99.90
47162;DHT22;32921;53.256;8.198;2022-12-10T14:49:25;0.90;99.90
47162;DHT22;32921;53.256;8.198;2022-12-10T14:51:51;0.90;99.90
47162;DHT22;32921;53.256;8.198;2022-12-10T14:54:28;0.90;99.90
47162;DHT22;32921;53.256;8.198;2022-12-10T14:56:58;0.90;99.90
47162;DHT22;32921;53.256;8.198;2022-12-10T15:02:20;0.80;99.90
47162;DHT22;32921;53.256;8.198;2022-12-10T15:04:48;0.90;99.90
47162;DHT22;32921;53.256;8.198;2022-12-10T15:07:26;0.80;99.90
47162;DHT22;32921;53.256;8.198;2022-12-10T15:09:55;0.80;99.90
47162;DHT22;32921;53.256;8.198;2022-12-10T15:12:45;0.70;99.90
47162;DHT22;32921;53.256;8.198;2022-12-10T15:15:29;0.80;99.90
47162;DHT22;32921;53.256;8.198;2022-12-10T15:18:00;0.80;99.90
47162;DHT22;32921;53.256;8.198;2022-12-10T15:20:48;0.80;99.90
47162;DHT22;32921;53.256;8.198;2022-12-10T15:26:00;0.80;99.90
47162;DHT22;32921;53.256;8.198;2022-12-10T15:28:35;0.80;99.90
47162;DHT22;32921;53.256;8.198;2022-12-10T15:31:28;0.80;99.90
47162;DHT22;32921;53.256;8.198;2022-12-10T15:34:01;0.70;99.90
47162;DHT22;32921;53.256;8.198;2022-12-10T15:36:41;0.70;99.90
47162;DHT22;32921;53.256;8.198;2022-12-10T15:39:20;0.80;99.90
47162;DHT22;32921;53.256;8.198;2022-12-10T15:41:56;0.80;99.90
47162;DHT22;32921;53.256;8.198;2022-12-10T15:44:38;0.70;99.90
47162;DHT22;32921;53.256;8.198;2022-12-10T15:47:18;0.70;99.90
47162;DHT22;32921;53.256;8.198;2022-12-10T15:49:45;0.70;99.90
47162;DHT22;32921;53.256;8.198;2022-12-10T15:52:16;0.70;99.90
47162;DHT22;32921;53.256;8.198;2022-12-10T15:54:45;0.70;99.90
47162;DHT22;32921;53.256;8.198;2022-12-10T15:57:19;0.70;99.90
47162;DHT22;32921;53.256;8.198;2022-12-10T15:59:47;0.70;99.90
47162;DHT22;32921;53.256;8.198;2022-12-10T16:02:36;0.70;99.90
47162;DHT22;32921;53.256;8.198;2022-12-10T16:07:38;0.70;99.90
47162;DHT22;32921;53.256;8.198;2022-12-10T16:10:04;0.70;99.90
47162;DHT22;32921;53.256;8.198;2022-12-10T16:12:31;0.70;99.90
47162;DHT22;32921;53.256;8.198;2022-12-10T16:14:58;0.60;99.90
47162;DHT22;32921;53.256;8.198;2022-12-10T16:17:29;0.60;99.90
47162;DHT22;32921;53.256;8.198;2022-12-10T16:20:25;0.60;99.90
47162;DHT22;32921;53.256;8.198;2022-12-10T16:22:52;0.60;99.90
47162;DHT22;32921;53.256;8.198;2022-12-10T16:25:17;0.60;99.90
47162;DHT22;32921;53.256;8.198;2022-12-10T16:27:43;0.70;99.90
47162;DHT22;32921;53.256;8.198;2022-12-10T16:30:18;0.70;99.90
47162;DHT22;32921;53.256;8.198;2022-12-10T16:32:44;0.70;99.90
47162;DHT22;32921;53.256;8.198;2022-12-10T16:35:10;0.70;99.90
47162;DHT22;32921;53.256;8.198;2022-12-10T16:37:42;0.60;99.90
47162;DHT22;32921;53.256;8.198;2022-12-10T16:40:09;0.70;99.90
47162;DHT22;32921;53.256;8.198;2022-12-10T16:42:35;0.70;99.90
47162;DHT22;32921;53.256;8.198;2022-12-10T16:45:01;0.70;99.90
47162;DHT22;32921;53.256;8.198;2022-12-10T16:47:26;0.70;99.90
47162;DHT22;32921;53.256;8.198;2022-12-10T16:49:52;0.70;99.90
47162;DHT22;32921;53.256;8.198;2022-12-10T16:52:17;0.60;99.90
47162;DHT22;32921;53.256;8.198;2022-12-10T16:54:43;0.60;99.90
47162;DHT22;32921;53.256;8.198;2022-12-10T16:57:13;0.60;99.90
47162;DHT22;32921;53.256;8.198;2022-12-10T16:59:40;0.60;99.90
47162;DHT22;32921;53.256;8.198;2022-12-10T17:02:26;0.60;99.90
47162;DHT22;32921;53.256;8.198;2022-12-10T17:04:51;0.60;99.90
47162;DHT22;32921;53.256;8.198;2022-12-10T17:07:17;0.60;99.90
47162;DHT22;32921;53.256;8.198;2022-12-10T17:09:42;0.60;99.90
47162;DHT22;32921;53.256;8.198;2022-12-10T17:12:09;0.70;99.90
47162;DHT22;32921;53.256;8.198;2022-12-10T17:14:39;0.60;99.90
47162;DHT22;32921;53.256;8.198;2022-12-10T17:17:05;0.60;99.90
47162;DHT22;32921;53.256;8.198;2022-12-10T17:19:34;0.60;99.90
47162;DHT22;32921;53.256;8.198;2022-12-10T17:22:00;0.70;99.90
47162;DHT22;32921;53.256;8.198;2022-12-10T17:24:26;0.60;99.90
47162;DHT22;32921;53.256;8.198;2022-12-10T17:26:52;0.60;99.90
47162;DHT22;32921;53.256;8.198;2022-12-10T17:29:25;0.60;99.90
47162;DHT22;32921;53.256;8.198;2022-12-10T17:31:51;0.60;99.90
47162;DHT22;32921;53.256;8.198;2022-12-10T17:34:17;0.60;99.90
47162;DHT22;32921;53.256;8.198;2022-12-10T17:36:43;0.60;99.90
47162;DHT22;32921;53.256;8.198;2022-12-10T17:39:13;0.60;99.90
47162;DHT22;32921;53.256;8.198;2022-12-10T17:41:39;0.60;99.90
47162;DHT22;32921;53.256;8.198;2022-12-10T17:44:05;0.60;99.90
47162;DHT22;32921;53.256;8.198;2022-12-10T17:46:31;0.60;99.90